PHOGPHKO

Guest
Details From PHOG - Kahului
To PHKO - Kona Intl At Keahole
Flight Number -
Tags Generated
Created
Modified
Stats Distance 72 nm / 134 km
Max Altitude 0 ft / 0 m
Waypoints 2
Social Downloads 3
Likes 0
Share VATSIM

Download

Looking for another format? Having issues loading an existing format? Contact us
Advertisement - Login to hide

Notes

Generated

Route

PHOG PHKO

ID Type Via Altitude Latitude Longitude Leg Dist Tot Dist Heading (true) Name
O PHOG APT - 0 ft / 0 m 20.89802˚ -156.43710˚ - 0 nm - -
O PHKO APT - 0 ft / 0 m 19.75386˚ -156.04429˚ 72 nm 72 nm 162° / 162° -

Altitude Profile

Advertisement - Login to hide

PHOG

Details ICAO PHOG (OGG)
Name Kahului
Region USA (Hawaii)
Timezone Pacific/Honolulu (UTC-10.0)
Stats Elevation 54 ft / 16 m (AMSL)
Location 20.898975° -156.430460°
Runways 2
Magnetic Variation 9.529° E

METAR

PHOG 141454Z AUTO 02019G24KT 10SM SCT031 OVC055 20/17 A3003

Decode

TAF

PHOG 141416Z 1414/1512 03016G24KT P6SM SCT030 BKN050 TEMPO 1414/1418 5SM -SHRA BKN030 FM142000 03020G30KT P6SM VCSH FEW025 BKN040 FM150600 04012G18KT P6SM VCSH SCT025 BKN040 AMD LTD TO VIS AND WIND TIL 141600

Decode

Departure Runways

ID Width Length Bearing (true) Bearing (mag) Surface Threshold Offset Overrun Length
02 150 ft / 46 m 7,013 ft / 2,138 m 34.81° 25.28° Asphalt 0 ft / 0 m 0 ft / 0 m
05 150 ft / 46 m 4,989 ft / 1,521 m 64.91° 55.38° Asphalt 0 ft / 0 m 0 ft / 0 m
20 150 ft / 46 m 7,013 ft / 2,138 m 214.81° 205.28° Asphalt 0 ft / 0 m 0 ft / 0 m
23 150 ft / 46 m 4,989 ft / 1,521 m 244.91° 235.38° Asphalt 0 ft / 0 m 0 ft / 0 m

PHKO

Details ICAO PHKO (KOA)
Name Kona Intl At Keahole
Region USA (Hawaii)
Timezone Pacific/Honolulu (UTC-10.0)
Stats Elevation 45 ft / 14 m (AMSL)
Location 19.739343° -156.045756°
Runways 1
Magnetic Variation 9.436° E

METAR

PHKO 141453Z AUTO 01015KT 10SM CLR 22/13 A2996

Decode

TAF

PHKO 141139Z 1412/1512 02020G28KT P6SM FEW060 FM150800 03016G22KT P6SM FEW060

Decode

Destination Runways

ID Width Length Bearing (true) Bearing (mag) Surface Threshold Offset Overrun Length
17 150 ft / 46 m 11,461 ft / 3,493 m 184.77° 175.33° Asphalt 407 ft / 124 m 0 ft / 0 m
35 150 ft / 46 m 11,461 ft / 3,493 m 4.77° 355.33° Asphalt 0 ft / 0 m 404 ft / 123 m

Approach Navaids

Runway Type Ident Frequency Range Bearing (true) Bearing (mag) Slope Elevation
17 Localiser IKOA 109.70 MHz 18 nm / 33 km 184.77° 175.33° - 43 ft / 13 m (AMSL)
17 Glidescope IKOA 109.70 MHz 10 nm / 19 km 184.77° 175.33° 3.00° 43 ft / 13 m (AMSL)
17 DME IKOA 109.70 MHz 18 nm / 33 km - - - 43 ft / 13 m (AMSL)

Popular Alternatives